sensor_id;sensor_type;location;lat;lon;timestamp;temperature;humidity
29687;DHT22;16599;47.078;15.536;2023-04-03T00:00:41;3.60;87.80
29687;DHT22;16599;47.078;15.536;2023-04-03T00:03:08;3.80;86.90
29687;DHT22;16599;47.078;15.536;2023-04-03T00:05:35;3.40;88.20
29687;DHT22;16599;47.078;15.536;2023-04-03T00:08:02;3.40;88.90
29687;DHT22;16599;47.078;15.536;2023-04-03T00:10:29;3.40;88.40
29687;DHT22;16599;47.078;15.536;2023-04-03T00:12:56;3.20;88.80
29687;DHT22;16599;47.078;15.536;2023-04-03T00:15:22;3.50;87.70
29687;DHT22;16599;47.078;15.536;2023-04-03T00:17:49;3.20;89.70
29687;DHT22;16599;47.078;15.536;2023-04-03T00:20:16;3.20;90.00
29687;DHT22;16599;47.078;15.536;2023-04-03T00:22:43;3.30;90.20
29687;DHT22;16599;47.078;15.536;2023-04-03T00:25:10;3.50;89.40
29687;DHT22;16599;47.078;15.536;2023-04-03T00:27:38;3.50;88.90
29687;DHT22;16599;47.078;15.536;2023-04-03T00:30:07;3.50;87.70
29687;DHT22;16599;47.078;15.536;2023-04-03T00:32:34;3.60;87.40
29687;DHT22;16599;47.078;15.536;2023-04-03T00:35:02;3.60;87.90
29687;DHT22;16599;47.078;15.536;2023-04-03T00:37:29;3.30;89.00
29687;DHT22;16599;47.078;15.536;2023-04-03T00:39:56;3.20;90.30
29687;DHT22;16599;47.078;15.536;2023-04-03T00:42:23;3.30;88.90
29687;DHT22;16599;47.078;15.536;2023-04-03T00:47:19;3.10;90.60
29687;DHT22;16599;47.078;15.536;2023-04-03T00:49:46;2.50;91.50
29687;DHT22;16599;47.078;15.536;2023-04-03T00:52:17;2.40;91.90
29687;DHT22;16599;47.078;15.536;2023-04-03T00:54:45;2.40;92.10
29687;DHT22;16599;47.078;15.536;2023-04-03T00:57:14;2.30;92.40
29687;DHT22;16599;47.078;15.536;2023-04-03T00:59:46;2.50;92.10
29687;DHT22;16599;47.078;15.536;2023-04-03T01:02:15;2.30;92.20
29687;DHT22;16599;47.078;15.536;2023-04-03T01:04:43;2.20;92.20
29687;DHT22;16599;47.078;15.536;2023-04-03T01:07:16;2.50;92.30
29687;DHT22;16599;47.078;15.536;2023-04-03T01:09:45;2.70;91.70
29687;DHT22;16599;47.078;15.536;2023-04-03T01:12:20;2.70;91.30
29687;DHT22;16599;47.078;15.536;2023-04-03T01:14:59;2.80;91.00
29687;DHT22;16599;47.078;15.536;2023-04-03T01:23:29;2.60;92.10
29687;DHT22;16599;47.078;15.536;2023-04-03T01:25:33;2.30;92.00
29687;DHT22;16599;47.078;15.536;2023-04-03T01:28:00;2.10;92.40
29687;DHT22;16599;47.078;15.536;2023-04-03T01:30:33;1.80;93.10
29687;DHT22;16599;47.078;15.536;2023-04-03T01:33:01;1.40;93.80
29687;DHT22;16599;47.078;15.536;2023-04-03T01:35:28;1.60;93.80
29687;DHT22;16599;47.078;15.536;2023-04-03T01:37:55;1.80;93.40
29687;DHT22;16599;47.078;15.536;2023-04-03T01:40:22;1.70;93.10
29687;DHT22;16599;47.078;15.536;2023-04-03T01:42:48;1.30;93.20
29687;DHT22;16599;47.078;15.536;2023-04-03T01:45:15;1.30;94.10
29687;DHT22;16599;47.078;15.536;2023-04-03T01:47:42;1.50;94.10
29687;DHT22;16599;47.078;15.536;2023-04-03T01:50:09;1.00;94.00
29687;DHT22;16599;47.078;15.536;2023-04-03T01:52:36;1.30;94.40
29687;DHT22;16599;47.078;15.536;2023-04-03T01:55:03;1.60;93.80
29687;DHT22;16599;47.078;15.536;2023-04-03T01:57:30;1.40;93.40
29687;DHT22;16599;47.078;15.536;2023-04-03T01:59:57;1.40;93.10
29687;DHT22;16599;47.078;15.536;2023-04-03T02:02:24;1.10;93.30
29687;DHT22;16599;47.078;15.536;2023-04-03T02:04:51;1.60;92.90
29687;DHT22;16599;47.078;15.536;2023-04-03T02:07:18;1.90;92.40
29687;DHT22;16599;47.078;15.536;2023-04-03T02:09:45;2.00;91.20
29687;DHT22;16599;47.078;15.536;2023-04-03T02:12:11;2.20;90.80
29687;DHT22;16599;47.078;15.536;2023-04-03T02:14:38;2.00;90.80
29687;DHT22;16599;47.078;15.536;2023-04-03T02:17:05;2.00;90.90
29687;DHT22;16599;47.078;15.536;2023-04-03T02:19:35;2.20;90.60
29687;DHT22;16599;47.078;15.536;2023-04-03T02:22:05;2.60;88.00
29687;DHT22;16599;47.078;15.536;2023-04-03T02:24:32;2.70;87.70
29687;DHT22;16599;47.078;15.536;2023-04-03T02:26:59;2.90;87.20
29687;DHT22;16599;47.078;15.536;2023-04-03T02:29:26;3.30;84.50
29687;DHT22;16599;47.078;15.536;2023-04-03T02:31:53;3.40;83.80
29687;DHT22;16599;47.078;15.536;2023-04-03T02:34:20;3.30;83.90
29687;DHT22;16599;47.078;15.536;2023-04-03T02:36:46;3.30;84.10
29687;DHT22;16599;47.078;15.536;2023-04-03T02:39:13;3.40;83.10
29687;DHT22;16599;47.078;15.536;2023-04-03T02:41:40;3.30;83.30
29687;DHT22;16599;47.078;15.536;2023-04-03T02:44:09;3.30;83.80
29687;DHT22;16599;47.078;15.536;2023-04-03T02:46:36;3.40;83.10
29687;DHT22;16599;47.078;15.536;2023-04-03T02:49:03;3.50;82.10
29687;DHT22;16599;47.078;15.536;2023-04-03T02:51:30;3.70;81.40
29687;DHT22;16599;47.078;15.536;2023-04-03T02:53:57;3.70;81.00
29687;DHT22;16599;47.078;15.536;2023-04-03T02:56:24;3.70;81.60
29687;DHT22;16599;47.078;15.536;2023-04-03T02:58:51;3.50;82.30
29687;DHT22;16599;47.078;15.536;2023-04-03T03:01:18;3.50;82.10
29687;DHT22;16599;47.078;15.536;2023-04-03T03:03:44;3.60;81.20
29687;DHT22;16599;47.078;15.536;2023-04-03T03:06:17;3.80;81.10
29687;DHT22;16599;47.078;15.536;2023-04-03T03:08:44;3.80;80.40
29687;DHT22;16599;47.078;15.536;2023-04-03T03:11:11;3.70;80.50
29687;DHT22;16599;47.078;15.536;2023-04-03T03:13:38;3.90;79.60
29687;DHT22;16599;47.078;15.536;2023-04-03T03:16:05;3.90;79.60
29687;DHT22;16599;47.078;15.536;2023-04-03T03:18:33;3.70;80.30
29687;DHT22;16599;47.078;15.536;2023-04-03T03:21:01;3.80;79.80
29687;DHT22;16599;47.078;15.536;2023-04-03T03:23:30;3.70;80.40
29687;DHT22;16599;47.078;15.536;2023-04-03T03:26:01;3.80;80.10
29687;DHT22;16599;47.078;15.536;2023-04-03T03:28:28;3.90;79.00
29687;DHT22;16599;47.078;15.536;2023-04-03T03:30:55;3.90;79.60
29687;DHT22;16599;47.078;15.536;2023-04-03T03:33:23;3.70;79.80
29687;DHT22;16599;47.078;15.536;2023-04-03T03:35:49;3.70;80.20
29687;DHT22;16599;47.078;15.536;2023-04-03T03:38:17;3.60;80.60
29687;DHT22;16599;47.078;15.536;2023-04-03T03:40:43;3.70;80.40
29687;DHT22;16599;47.078;15.536;2023-04-03T03:43:10;3.70;79.90
29687;DHT22;16599;47.078;15.536;2023-04-03T03:45:37;3.70;80.40
29687;DHT22;16599;47.078;15.536;2023-04-03T03:48:05;3.80;78.70
29687;DHT22;16599;47.078;15.536;2023-04-03T03:50:32;3.80;79.00
29687;DHT22;16599;47.078;15.536;2023-04-03T03:52:59;3.70;78.90
29687;DHT22;16599;47.078;15.536;2023-04-03T03:55:26;3.70;80.20
29687;DHT22;16599;47.078;15.536;2023-04-03T03:57:53;3.60;80.40
29687;DHT22;16599;47.078;15.536;2023-04-03T04:00:20;3.70;79.90
29687;DHT22;16599;47.078;15.536;2023-04-03T04:02:46;3.60;81.50
29687;DHT22;16599;47.078;15.536;2023-04-03T04:05:13;3.40;82.60
29687;DHT22;16599;47.078;15.536;2023-04-03T04:07:40;3.40;82.30
29687;DHT22;16599;47.078;15.536;2023-04-03T04:10:07;3.50;82.40
29687;DHT22;16599;47.078;15.536;2023-04-03T04:12:34;3.50;82.40
29687;DHT22;16599;47.078;15.536;2023-04-03T04:15:02;3.40;82.80
29687;DHT22;16599;47.078;15.536;2023-04-03T04:17:29;3.40;82.70
29687;DHT22;16599;47.078;15.536;2023-04-03T04:19:56;3.20;84.40
29687;DHT22;16599;47.078;15.536;2023-04-03T04:22:23;3.00;86.40
29687;DHT22;16599;47.078;15.536;2023-04-03T04:24:50;3.20;84.80
29687;DHT22;16599;47.078;15.536;2023-04-03T04:27:16;3.30;84.00
29687;DHT22;16599;47.078;15.536;2023-04-03T04:29:43;3.40;83.40
29687;DHT22;16599;47.078;15.536;2023-04-03T04:32:10;3.40;83.70
29687;DHT22;16599;47.078;15.536;2023-04-03T04:34:37;3.50;83.20
29687;DHT22;16599;47.078;15.536;2023-04-03T04:37:04;3.60;82.90
29687;DHT22;16599;47.078;15.536;2023-04-03T04:39:31;3.70;82.60
29687;DHT22;16599;47.078;15.536;2023-04-03T04:41:57;3.60;84.20
29687;DHT22;16599;47.078;15.536;2023-04-03T04:44:24;3.90;80.70
29687;DHT22;16599;47.078;15.536;2023-04-03T04:46:51;3.80;82.60
29687;DHT22;16599;47.078;15.536;2023-04-03T04:49:18;3.70;82.50
29687;DHT22;16599;47.078;15.536;2023-04-03T04:51:45;3.80;83.00
29687;DHT22;16599;47.078;15.536;2023-04-03T04:54:18;4.00;80.10
29687;DHT22;16599;47.078;15.536;2023-04-03T04:56:44;4.10;79.40
29687;DHT22;16599;47.078;15.536;2023-04-03T04:59:11;4.10;79.00
29687;DHT22;16599;47.078;15.536;2023-04-03T05:01:38;4.20;78.50
29687;DHT22;16599;47.078;15.536;2023-04-03T05:04:05;4.20;78.50
29687;DHT22;16599;47.078;15.536;2023-04-03T05:06:32;4.20;78.70
29687;DHT22;16599;47.078;15.536;2023-04-03T05:08:59;4.30;78.50
29687;DHT22;16599;47.078;15.536;2023-04-03T05:11:26;4.20;79.70
29687;DHT22;16599;47.078;15.536;2023-04-03T05:13:53;4.20;79.70
29687;DHT22;16599;47.078;15.536;2023-04-03T05:16:20;4.30;78.30
29687;DHT22;16599;47.078;15.536;2023-04-03T05:18:47;4.30;78.90
29687;DHT22;16599;47.078;15.536;2023-04-03T05:21:13;4.30;80.10
29687;DHT22;16599;47.078;15.536;2023-04-03T05:23:40;4.20;80.40
29687;DHT22;16599;47.078;15.536;2023-04-03T05:26:07;4.30;79.00
29687;DHT22;16599;47.078;15.536;2023-04-03T05:28:34;4.30;79.10
29687;DHT22;16599;47.078;15.536;2023-04-03T05:31:02;4.30;79.70
29687;DHT22;16599;47.078;15.536;2023-04-03T05:33:29;4.30;80.10
29687;DHT22;16599;47.078;15.536;2023-04-03T05:35:56;4.40;79.50
29687;DHT22;16599;47.078;15.536;2023-04-03T05:38:23;4.40;79.20
29687;DHT22;16599;47.078;15.536;2023-04-03T05:40:49;4.30;79.30
29687;DHT22;16599;47.078;15.536;2023-04-03T05:43:16;4.30;79.80
29687;DHT22;16599;47.078;15.536;2023-04-03T05:45:43;4.30;80.70
29687;DHT22;16599;47.078;15.536;2023-04-03T05:48:12;4.30;80.10
29687;DHT22;16599;47.078;15.536;2023-04-03T05:50:39;4.30;79.80
29687;DHT22;16599;47.078;15.536;2023-04-03T05:53:18;4.30;80.20
29687;DHT22;16599;47.078;15.536;2023-04-03T05:55:47;4.30;80.10
29687;DHT22;16599;47.078;15.536;2023-04-03T05:58:14;4.40;79.90
29687;DHT22;16599;47.078;15.536;2023-04-03T06:00:41;4.40;79.10
29687;DHT22;16599;47.078;15.536;2023-04-03T06:03:07;4.50;79.80
29687;DHT22;16599;47.078;15.536;2023-04-03T06:05:35;4.50;79.40
29687;DHT22;16599;47.078;15.536;2023-04-03T06:08:03;4.50;78.70
29687;DHT22;16599;47.078;15.536;2023-04-03T06:10:30;4.60;77.40
29687;DHT22;16599;47.078;15.536;2023-04-03T06:12:57;4.60;78.20
29687;DHT22;16599;47.078;15.536;2023-04-03T06:15:23;4.70;77.70
29687;DHT22;16599;47.078;15.536;2023-04-03T06:17:51;4.70;78.60
29687;DHT22;16599;47.078;15.536;2023-04-03T06:20:18;4.70;77.60
29687;DHT22;16599;47.078;15.536;2023-04-03T06:22:45;4.70;77.50
29687;DHT22;16599;47.078;15.536;2023-04-03T06:25:12;4.70;77.00
29687;DHT22;16599;47.078;15.536;2023-04-03T06:27:39;4.80;77.50
29687;DHT22;16599;47.078;15.536;2023-04-03T06:30:07;4.80;77.20
29687;DHT22;16599;47.078;15.536;2023-04-03T06:32:33;4.80;76.10
29687;DHT22;16599;47.078;15.536;2023-04-03T06:35:00;4.70;77.50
29687;DHT22;16599;47.078;15.536;2023-04-03T06:37:27;4.70;76.80
29687;DHT22;16599;47.078;15.536;2023-04-03T06:39:57;4.80;77.80
29687;DHT22;16599;47.078;15.536;2023-04-03T06:42:24;4.80;76.20
29687;DHT22;16599;47.078;15.536;2023-04-03T06:44:51;4.80;75.80
29687;DHT22;16599;47.078;15.536;2023-04-03T06:47:18;4.80;75.70
29687;DHT22;16599;47.078;15.536;2023-04-03T06:49:45;4.70;76.60
29687;DHT22;16599;47.078;15.536;2023-04-03T06:52:13;4.70;76.10
29687;DHT22;16599;47.078;15.536;2023-04-03T06:54:40;4.70;74.80
29687;DHT22;16599;47.078;15.536;2023-04-03T06:57:07;4.70;75.10
29687;DHT22;16599;47.078;15.536;2023-04-03T06:59:35;4.80;76.70
29687;DHT22;16599;47.078;15.536;2023-04-03T07:02:02;4.80;76.20
29687;DHT22;16599;47.078;15.536;2023-04-03T07:04:29;4.80;74.90
29687;DHT22;16599;47.078;15.536;2023-04-03T07:06:56;4.80;75.80
29687;DHT22;16599;47.078;15.536;2023-04-03T07:09:23;4.80;75.80
29687;DHT22;16599;47.078;15.536;2023-04-03T07:11:50;4.80;76.40
29687;DHT22;16599;47.078;15.536;2023-04-03T07:14:16;4.80;75.10
29687;DHT22;16599;47.078;15.536;2023-04-03T07:16:43;4.80;74.30
29687;DHT22;16599;47.078;15.536;2023-04-03T07:19:10;4.80;74.80
29687;DHT22;16599;47.078;15.536;2023-04-03T07:21:37;4.80;73.90
29687;DHT22;16599;47.078;15.536;2023-04-03T07:24:04;4.90;74.70
29687;DHT22;16599;47.078;15.536;2023-04-03T07:26:31;4.80;74.20
29687;DHT22;16599;47.078;15.536;2023-04-03T07:28:58;4.90;74.90
29687;DHT22;16599;47.078;15.536;2023-04-03T07:31:26;4.90;74.20
29687;DHT22;16599;47.078;15.536;2023-04-03T07:33:53;5.00;73.40
29687;DHT22;16599;47.078;15.536;2023-04-03T07:36:22;5.00;73.80
29687;DHT22;16599;47.078;15.536;2023-04-03T07:38:49;5.10;73.30
29687;DHT22;16599;47.078;15.536;2023-04-03T07:41:18;5.10;73.40
29687;DHT22;16599;47.078;15.536;2023-04-03T07:43:45;5.20;74.00
29687;DHT22;16599;47.078;15.536;2023-04-03T07:46:13;5.30;73.20
29687;DHT22;16599;47.078;15.536;2023-04-03T07:48:40;5.20;73.10
29687;DHT22;16599;47.078;15.536;2023-04-03T07:51:07;5.20;72.60
29687;DHT22;16599;47.078;15.536;2023-04-03T07:53:34;5.30;73.50
29687;DHT22;16599;47.078;15.536;2023-04-03T07:56:01;5.30;72.70
29687;DHT22;16599;47.078;15.536;2023-04-03T07:58:29;5.30;73.70
29687;DHT22;16599;47.078;15.536;2023-04-03T08:00:56;5.40;73.20
29687;DHT22;16599;47.078;15.536;2023-04-03T08:03:23;5.30;71.90
29687;DHT22;16599;47.078;15.536;2023-04-03T08:05:51;5.40;74.20
29687;DHT22;16599;47.078;15.536;2023-04-03T08:08:21;5.40;72.30
29687;DHT22;16599;47.078;15.536;2023-04-03T08:10:50;5.40;72.20
29687;DHT22;16599;47.078;15.536;2023-04-03T08:13:17;5.40;71.80
29687;DHT22;16599;47.078;15.536;2023-04-03T08:15:45;5.40;71.70
29687;DHT22;16599;47.078;15.536;2023-04-03T08:18:12;5.30;70.50
29687;DHT22;16599;47.078;15.536;2023-04-03T08:20:39;5.30;71.70
29687;DHT22;16599;47.078;15.536;2023-04-03T08:23:07;5.40;72.90
29687;DHT22;16599;47.078;15.536;2023-04-03T08:25:38;5.50;70.90
29687;DHT22;16599;47.078;15.536;2023-04-03T08:28:05;5.50;70.50
29687;DHT22;16599;47.078;15.536;2023-04-03T08:30:32;5.50;70.90
29687;DHT22;16599;47.078;15.536;2023-04-03T08:33:02;5.70;71.60
29687;DHT22;16599;47.078;15.536;2023-04-03T08:35:29;5.60;69.20
29687;DHT22;16599;47.078;15.536;2023-04-03T08:37:56;5.80;70.80
29687;DHT22;16599;47.078;15.536;2023-04-03T08:40:24;6.00;71.00
29687;DHT22;16599;47.078;15.536;2023-04-03T08:45:53;6.00;68.70
29687;DHT22;16599;47.078;15.536;2023-04-03T08:48:27;6.10;68.70
29687;DHT22;16599;47.078;15.536;2023-04-03T08:51:02;6.10;70.40
29687;DHT22;16599;47.078;15.536;2023-04-03T08:53:40;5.80;65.80
29687;DHT22;16599;47.078;15.536;2023-04-03T08:56:10;5.80;68.00
29687;DHT22;16599;47.078;15.536;2023-04-03T08:58:52;5.80;67.70
29687;DHT22;16599;47.078;15.536;2023-04-03T09:01:37;5.90;66.20
29687;DHT22;16599;47.078;15.536;2023-04-03T09:04:15;5.90;66.90
29687;DHT22;16599;47.078;15.536;2023-04-03T09:06:49;6.10;65.50
29687;DHT22;16599;47.078;15.536;2023-04-03T09:14:57;6.00;64.50
29687;DHT22;16599;47.078;15.536;2023-04-03T09:22:43;6.00;64.80
29687;DHT22;16599;47.078;15.536;2023-04-03T09:25:27;6.00;64.20
29687;DHT22;16599;47.078;15.536;2023-04-03T09:27:56;6.10;65.20
29687;DHT22;16599;47.078;15.536;2023-04-03T09:30:25;6.00;63.60
29687;DHT22;16599;47.078;15.536;2023-04-03T09:32:54;6.20;63.80
29687;DHT22;16599;47.078;15.536;2023-04-03T09:35:33;6.20;63.00
29687;DHT22;16599;47.078;15.536;2023-04-03T09:40:43;6.00;65.00
29687;DHT22;16599;47.078;15.536;2023-04-03T09:43:28;6.20;65.10
29687;DHT22;16599;47.078;15.536;2023-04-03T09:46:15;6.20;65.40
29687;DHT22;16599;47.078;15.536;2023-04-03T09:49:00;6.30;63.80
29687;DHT22;16599;47.078;15.536;2023-04-03T09:51:35;6.40;65.40
29687;DHT22;16599;47.078;15.536;2023-04-03T09:54:33;6.50;63.60
29687;DHT22;16599;47.078;15.536;2023-04-03T09:57:12;6.20;63.20
29687;DHT22;16599;47.078;15.536;2023-04-03T09:59:46;6.40;63.10
29687;DHT22;16599;47.078;15.536;2023-04-03T10:04:55;6.30;63.00
29687;DHT22;16599;47.078;15.536;2023-04-03T10:07:37;6.30;63.00
29687;DHT22;16599;47.078;15.536;2023-04-03T10:10:20;6.50;63.70
29687;DHT22;16599;47.078;15.536;2023-04-03T10:13:07;6.50;62.90
29687;DHT22;16599;47.078;15.536;2023-04-03T10:15:46;6.70;62.40
29687;DHT22;16599;47.078;15.536;2023-04-03T10:18:32;7.10;64.60
29687;DHT22;16599;47.078;15.536;2023-04-03T10:21:19;7.40;63.20
29687;DHT22;16599;47.078;15.536;2023-04-03T10:24:14;7.30;60.90
29687;DHT22;16599;47.078;15.536;2023-04-03T10:26:58;6.90;64.40
29687;DHT22;16599;47.078;15.536;2023-04-03T10:38:00;6.20;63.70
29687;DHT22;16599;47.078;15.536;2023-04-03T10:46:33;7.30;62.50
29687;DHT22;16599;47.078;15.536;2023-04-03T10:49:43;7.30;59.90
29687;DHT22;16599;47.078;15.536;2023-04-03T10:52:47;7.10;58.00
29687;DHT22;16599;47.078;15.536;2023-04-03T10:57:49;7.10;63.40
29687;DHT22;16599;47.078;15.536;2023-04-03T11:00:21;6.90;62.80
29687;DHT22;16599;47.078;15.536;2023-04-03T11:02:55;6.90;62.40
29687;DHT22;16599;47.078;15.536;2023-04-03T11:05:42;6.90;60.90
29687;DHT22;16599;47.078;15.536;2023-04-03T11:08:18;7.50;61.80
29687;DHT22;16599;47.078;15.536;2023-04-03T11:10:48;7.90;60.90
29687;DHT22;16599;47.078;15.536;2023-04-03T11:13:29;8.50;59.10
29687;DHT22;16599;47.078;15.536;2023-04-03T11:15:58;7.20;59.10
29687;DHT22;16599;47.078;15.536;2023-04-03T11:18:32;6.90;59.60
29687;DHT22;16599;47.078;15.536;2023-04-03T11:21:14;6.70;61.60
29687;DHT22;16599;47.078;15.536;2023-04-03T11:23:44;7.40;61.00
29687;DHT22;16599;47.078;15.536;2023-04-03T11:26:18;8.00;61.30
29687;DHT22;16599;47.078;15.536;2023-04-03T11:28:45;7.80;59.20
29687;DHT22;16599;47.078;15.536;2023-04-03T11:31:42;7.80;58.10
29687;DHT22;16599;47.078;15.536;2023-04-03T11:34:37;8.20;60.80
29687;DHT22;16599;47.078;15.536;2023-04-03T11:37:34;8.00;59.10
29687;DHT22;16599;47.078;15.536;2023-04-03T11:40:30;7.50;58.10
29687;DHT22;16599;47.078;15.536;2023-04-03T11:45:28;7.60;59.40
29687;DHT22;16599;47.078;15.536;2023-04-03T11:50:49;7.20;59.10
29687;DHT22;16599;47.078;15.536;2023-04-03T11:58:21;6.60;59.30
29687;DHT22;16599;47.078;15.536;2023-04-03T12:00:57;7.10;61.00
29687;DHT22;16599;47.078;15.536;2023-04-03T12:08:45;7.50;57.70
29687;DHT22;16599;47.078;15.536;2023-04-03T12:13:40;8.00;57.70
29687;DHT22;16599;47.078;15.536;2023-04-03T12:32:10;8.40;58.00
29687;DHT22;16599;47.078;15.536;2023-04-03T12:40:26;8.50;57.60
29687;DHT22;16599;47.078;15.536;2023-04-03T12:43:16;7.80;56.70
29687;DHT22;16599;47.078;15.536;2023-04-03T12:48:27;7.80;55.70
29687;DHT22;16599;47.078;15.536;2023-04-03T12:50:56;7.60;56.60
29687;DHT22;16599;47.078;15.536;2023-04-03T12:53:33;7.80;56.60
29687;DHT22;16599;47.078;15.536;2023-04-03T12:56:30;7.90;55.70
29687;DHT22;16599;47.078;15.536;2023-04-03T12:59:19;7.90;57.00
29687;DHT22;16599;47.078;15.536;2023-04-03T13:01:58;7.90;55.80
29687;DHT22;16599;47.078;15.536;2023-04-03T13:04:26;8.00;56.50
29687;DHT22;16599;47.078;15.536;2023-04-03T13:06:54;8.20;56.50
29687;DHT22;16599;47.078;15.536;2023-04-03T13:11:55;7.90;55.70
29687;DHT22;16599;47.078;15.536;2023-04-03T13:14:25;8.50;58.40
29687;DHT22;16599;47.078;15.536;2023-04-03T13:17:00;9.00;56.50
29687;DHT22;16599;47.078;15.536;2023-04-03T13:19:30;7.80;52.90
29687;DHT22;16599;47.078;15.536;2023-04-03T13:22:23;8.50;56.90
29687;DHT22;16599;47.078;15.536;2023-04-03T13:24:54;8.10;54.00
29687;DHT22;16599;47.078;15.536;2023-04-03T13:27:22;8.70;56.60
29687;DHT22;16599;47.078;15.536;2023-04-03T13:29:51;8.30;53.70
29687;DHT22;16599;47.078;15.536;2023-04-03T13:32:22;8.10;55.60
29687;DHT22;16599;47.078;15.536;2023-04-03T13:34:50;8.60;55.70
29687;DHT22;16599;47.078;15.536;2023-04-03T13:37:24;8.70;55.70
29687;DHT22;16599;47.078;15.536;2023-04-03T13:42:32;7.70;54.40
29687;DHT22;16599;47.078;15.536;2023-04-03T13:47:48;8.60;57.50
29687;DHT22;16599;47.078;15.536;2023-04-03T13:50:19;8.60;55.30
29687;DHT22;16599;47.078;15.536;2023-04-03T13:52:55;7.60;56.80
29687;DHT22;16599;47.078;15.536;2023-04-03T13:55:29;7.40;57.00
29687;DHT22;16599;47.078;15.536;2023-04-03T13:58:21;7.30;58.80
29687;DHT22;16599;47.078;15.536;2023-04-03T14:03:37;8.10;57.90
29687;DHT22;16599;47.078;15.536;2023-04-03T14:06:10;7.70;55.30
29687;DHT22;16599;47.078;15.536;2023-04-03T14:08:37;7.70;55.00
29687;DHT22;16599;47.078;15.536;2023-04-03T14:11:29;8.00;56.10
29687;DHT22;16599;47.078;15.536;2023-04-03T14:14:14;8.30;56.20
29687;DHT22;16599;47.078;15.536;2023-04-03T14:16:45;8.20;55.30
29687;DHT22;16599;47.078;15.536;2023-04-03T14:19:22;8.70;53.90
29687;DHT22;16599;47.078;15.536;2023-04-03T14:21:49;8.90;54.80
29687;DHT22;16599;47.078;15.536;2023-04-03T14:24:17;8.50;52.40
29687;DHT22;16599;47.078;15.536;2023-04-03T14:26:45;8.50;55.10
29687;DHT22;16599;47.078;15.536;2023-04-03T14:29:13;9.30;53.10
29687;DHT22;16599;47.078;15.536;2023-04-03T14:31:43;9.60;52.40
29687;DHT22;16599;47.078;15.536;2023-04-03T14:34:12;9.20;52.40
29687;DHT22;16599;47.078;15.536;2023-04-03T14:36:40;8.00;52.60
29687;DHT22;16599;47.078;15.536;2023-04-03T14:39:11;8.40;53.50
29687;DHT22;16599;47.078;15.536;2023-04-03T14:41:43;8.70;53.30
29687;DHT22;16599;47.078;15.536;2023-04-03T14:44:10;8.60;53.10
29687;DHT22;16599;47.078;15.536;2023-04-03T14:46:40;8.50;53.20
29687;DHT22;16599;47.078;15.536;2023-04-03T14:49:26;9.20;54.20
29687;DHT22;16599;47.078;15.536;2023-04-03T14:51:56;9.00;53.10
29687;DHT22;16599;47.078;15.536;2023-04-03T14:54:23;8.60;53.50
29687;DHT22;16599;47.078;15.536;2023-04-03T14:56:56;8.20;54.10
29687;DHT22;16599;47.078;15.536;2023-04-03T14:59:44;8.10;55.20
29687;DHT22;16599;47.078;15.536;2023-04-03T15:02:31;8.40;54.80
29687;DHT22;16599;47.078;15.536;2023-04-03T15:05:00;7.80;54.40
29687;DHT22;16599;47.078;15.536;2023-04-03T15:07:28;7.80;54.70
29687;DHT22;16599;47.078;15.536;2023-04-03T15:09:56;7.50;54.90
29687;DHT22;16599;47.078;15.536;2023-04-03T15:12:24;7.40;54.80
29687;DHT22;16599;47.078;15.536;2023-04-03T15:14:51;7.30;56.30
29687;DHT22;16599;47.078;15.536;2023-04-03T15:17:28;7.20;55.60
29687;DHT22;16599;47.078;15.536;2023-04-03T15:19:55;7.00;55.70
29687;DHT22;16599;47.078;15.536;2023-04-03T15:22:22;6.80;55.80
29687;DHT22;16599;47.078;15.536;2023-04-03T15:24:49;6.70;57.20
29687;DHT22;16599;47.078;15.536;2023-04-03T15:27:16;6.60;56.60
29687;DHT22;16599;47.078;15.536;2023-04-03T15:29:43;6.50;57.10
29687;DHT22;16599;47.078;15.536;2023-04-03T15:32:11;6.50;57.20
29687;DHT22;16599;47.078;15.536;2023-04-03T15:34:38;6.60;57.00
29687;DHT22;16599;47.078;15.536;2023-04-03T15:37:05;6.50;57.90
29687;DHT22;16599;47.078;15.536;2023-04-03T15:39:32;6.40;57.40
29687;DHT22;16599;47.078;15.536;2023-04-03T15:41:59;6.30;55.40
29687;DHT22;16599;47.078;15.536;2023-04-03T15:44:33;6.20;56.30
29687;DHT22;16599;47.078;15.536;2023-04-03T15:47:01;6.10;55.90
29687;DHT22;16599;47.078;15.536;2023-04-03T15:49:28;6.00;55.30
29687;DHT22;16599;47.078;15.536;2023-04-03T15:51:55;5.90;55.90
29687;DHT22;16599;47.078;15.536;2023-04-03T15:54:22;5.90;56.60
29687;DHT22;16599;47.078;15.536;2023-04-03T15:56:51;5.90;56.20
29687;DHT22;16599;47.078;15.536;2023-04-03T15:59:18;5.70;57.00
29687;DHT22;16599;47.078;15.536;2023-04-03T16:01:45;5.80;57.90
29687;DHT22;16599;47.078;15.536;2023-04-03T16:04:12;5.70;57.00
29687;DHT22;16599;47.078;15.536;2023-04-03T16:06:41;5.60;57.90
29687;DHT22;16599;47.078;15.536;2023-04-03T16:09:09;5.50;57.60
29687;DHT22;16599;47.078;15.536;2023-04-03T16:11:36;5.50;57.80
29687;DHT22;16599;47.078;15.536;2023-04-03T16:14:07;5.50;57.80
29687;DHT22;16599;47.078;15.536;2023-04-03T16:16:35;5.50;57.90
29687;DHT22;16599;47.078;15.536;2023-04-03T16:19:03;5.30;57.00
29687;DHT22;16599;47.078;15.536;2023-04-03T16:21:30;5.30;58.50
29687;DHT22;16599;47.078;15.536;2023-04-03T16:23:58;5.40;57.50
29687;DHT22;16599;47.078;15.536;2023-04-03T16:26:25;5.20;58.50
29687;DHT22;16599;47.078;15.536;2023-04-03T16:28:53;5.20;58.50
29687;DHT22;16599;47.078;15.536;2023-04-03T16:31:20;5.20;58.00
29687;DHT22;16599;47.078;15.536;2023-04-03T16:33:48;5.10;58.40
29687;DHT22;16599;47.078;15.536;2023-04-03T16:36:15;4.90;57.10
29687;DHT22;16599;47.078;15.536;2023-04-03T16:38:42;5.00;58.30
29687;DHT22;16599;47.078;15.536;2023-04-03T16:41:09;4.90;57.30
29687;DHT22;16599;47.078;15.536;2023-04-03T16:43:35;4.80;56.90
29687;DHT22;16599;47.078;15.536;2023-04-03T16:46:03;4.70;56.70
29687;DHT22;16599;47.078;15.536;2023-04-03T16:48:30;4.60;57.90
29687;DHT22;16599;47.078;15.536;2023-04-03T16:50:57;4.60;58.30
29687;DHT22;16599;47.078;15.536;2023-04-03T16:53:25;4.60;58.20
29687;DHT22;16599;47.078;15.536;2023-04-03T16:55:52;4.50;58.50
29687;DHT22;16599;47.078;15.536;2023-04-03T16:58:19;4.30;58.70
29687;DHT22;16599;47.078;15.536;2023-04-03T17:00:49;4.20;58.40
29687;DHT22;16599;47.078;15.536;2023-04-03T17:03:16;4.20;58.80
29687;DHT22;16599;47.078;15.536;2023-04-03T17:05:47;4.20;59.00
29687;DHT22;16599;47.078;15.536;2023-04-03T17:08:15;4.20;58.60
29687;DHT22;16599;47.078;15.536;2023-04-03T17:10:42;4.10;58.40
29687;DHT22;16599;47.078;15.536;2023-04-03T17:13:09;4.00;58.60
29687;DHT22;16599;47.078;15.536;2023-04-03T17:15:36;4.00;58.90
29687;DHT22;16599;47.078;15.536;2023-04-03T17:18:07;3.90;58.70
29687;DHT22;16599;47.078;15.536;2023-04-03T17:20:34;3.80;58.20
29687;DHT22;16599;47.078;15.536;2023-04-03T17:23:05;3.70;60.00
29687;DHT22;16599;47.078;15.536;2023-04-03T17:25:32;3.70;59.50